sensor_id;sensor_type;location;lat;lon;timestamp;P1;P2;P0
75960;PMS7003;64644;48.914;2.254;2023-04-03T00:00:39;30.25;28.00;17.25
75960;PMS7003;64644;48.914;2.254;2023-04-03T00:03:05;20.75;20.00;13.00
75960;PMS7003;64644;48.914;2.254;2023-04-03T00:05:31;35.50;25.25;15.00
75960;PMS7003;64644;48.914;2.254;2023-04-03T00:07:56;27.25;26.50;17.00
75960;PMS7003;64644;48.914;2.254;2023-04-03T00:10:22;30.50;28.25;16.75
75960;PMS7003;64644;48.914;2.254;2023-04-03T00:12:47;30.50;23.75;16.00
75960;PMS7003;64644;48.914;2.254;2023-04-03T00:15:12;35.75;26.00;15.75
75960;PMS7003;64644;48.914;2.254;2023-04-03T00:17:38;24.25;20.75;13.50
75960;PMS7003;64644;48.914;2.254;2023-04-03T00:20:03;26.75;25.00;16.50
75960;PMS7003;64644;48.914;2.254;2023-04-03T00:22:29;24.50;20.00;12.25
75960;PMS7003;64644;48.914;2.254;2023-04-03T00:24:55;29.50;27.50;16.75
75960;PMS7003;64644;48.914;2.254;2023-04-03T00:27:21;29.25;27.00;16.50
75960;PMS7003;64644;48.914;2.254;2023-04-03T00:29:46;28.00;24.00;17.50
75960;PMS7003;64644;48.914;2.254;2023-04-03T00:32:12;24.50;24.00;18.75
75960;PMS7003;64644;48.914;2.254;2023-04-03T00:34:38;27.75;23.00;16.50
75960;PMS7003;64644;48.914;2.254;2023-04-03T00:37:03;28.00;28.00;21.00
75960;PMS7003;64644;48.914;2.254;2023-04-03T00:39:28;23.75;23.50;15.00
75960;PMS7003;64644;48.914;2.254;2023-04-03T00:41:54;32.25;26.00;17.25
75960;PMS7003;64644;48.914;2.254;2023-04-03T00:46:53;29.00;29.00;20.25
75960;PMS7003;64644;48.914;2.254;2023-04-03T00:49:19;27.75;23.75;16.00
75960;PMS7003;64644;48.914;2.254;2023-04-03T00:51:44;22.75;22.25;16.00
75960;PMS7003;64644;48.914;2.254;2023-04-03T00:54:10;35.00;29.50;17.50
75960;PMS7003;64644;48.914;2.254;2023-04-03T00:56:37;29.75;26.00;20.25
75960;PMS7003;64644;48.914;2.254;2023-04-03T00:59:06;27.50;24.50;16.00
75960;PMS7003;64644;48.914;2.254;2023-04-03T01:01:36;25.00;23.00;15.50
75960;PMS7003;64644;48.914;2.254;2023-04-03T01:04:02;22.50;20.00;14.00
75960;PMS7003;64644;48.914;2.254;2023-04-03T01:06:31;28.00;25.75;17.00
75960;PMS7003;64644;48.914;2.254;2023-04-03T01:09:00;25.50;23.25;13.25
75960;PMS7003;64644;48.914;2.254;2023-04-03T01:11:26;36.00;30.75;19.75
75960;PMS7003;64644;48.914;2.254;2023-04-03T01:13:52;28.00;24.25;16.50
75960;PMS7003;64644;48.914;2.254;2023-04-03T01:16:18;29.25;23.75;14.25
75960;PMS7003;64644;48.914;2.254;2023-04-03T01:18:43;31.25;24.00;17.00
75960;PMS7003;64644;48.914;2.254;2023-04-03T01:26:25;27.75;26.50;18.00
75960;PMS7003;64644;48.914;2.254;2023-04-03T01:28:51;33.75;31.00;17.25
75960;PMS7003;64644;48.914;2.254;2023-04-03T01:31:29;32.50;31.00;21.00
75960;PMS7003;64644;48.914;2.254;2023-04-03T01:34:06;31.25;31.25;19.00
75960;PMS7003;64644;48.914;2.254;2023-04-03T01:36:31;25.75;23.25;14.00
75960;PMS7003;64644;48.914;2.254;2023-04-03T01:38:58;26.00;24.25;16.75
75960;PMS7003;64644;48.914;2.254;2023-04-03T01:41:24;33.25;27.00;16.50
75960;PMS7003;64644;48.914;2.254;2023-04-03T01:43:50;19.00;17.00;12.00
75960;PMS7003;64644;48.914;2.254;2023-04-03T01:46:16;27.50;26.25;16.50
75960;PMS7003;64644;48.914;2.254;2023-04-03T01:48:42;28.25;23.00;14.50
75960;PMS7003;64644;48.914;2.254;2023-04-03T01:51:07;31.50;27.50;17.50
75960;PMS7003;64644;48.914;2.254;2023-04-03T01:53:33;27.25;24.50;16.25
75960;PMS7003;64644;48.914;2.254;2023-04-03T01:55:58;31.25;27.50;16.50
75960;PMS7003;64644;48.914;2.254;2023-04-03T01:58:23;27.00;25.50;15.50
75960;PMS7003;64644;48.914;2.254;2023-04-03T02:00:49;26.50;23.00;14.25
75960;PMS7003;64644;48.914;2.254;2023-04-03T02:03:15;27.25;23.00;16.00
75960;PMS7003;64644;48.914;2.254;2023-04-03T02:05:41;27.50;25.00;15.00
75960;PMS7003;64644;48.914;2.254;2023-04-03T02:08:06;25.75;23.75;14.75
75960;PMS7003;64644;48.914;2.254;2023-04-03T02:10:31;26.00;23.50;14.25
75960;PMS7003;64644;48.914;2.254;2023-04-03T02:12:57;19.25;18.00;13.50
75960;PMS7003;64644;48.914;2.254;2023-04-03T02:15:22;23.75;22.50;14.50
75960;PMS7003;64644;48.914;2.254;2023-04-03T02:17:47;25.50;24.75;15.25
75960;PMS7003;64644;48.914;2.254;2023-04-03T02:20:13;21.25;20.00;13.00
75960;PMS7003;64644;48.914;2.254;2023-04-03T02:22:38;20.75;20.75;13.00
75960;PMS7003;64644;48.914;2.254;2023-04-03T02:25:04;35.50;27.00;16.00
75960;PMS7003;64644;48.914;2.254;2023-04-03T02:27:30;27.25;24.75;14.25
75960;PMS7003;64644;48.914;2.254;2023-04-03T02:29:56;23.75;22.00;14.00
75960;PMS7003;64644;48.914;2.254;2023-04-03T02:32:22;28.00;25.25;15.25
75960;PMS7003;64644;48.914;2.254;2023-04-03T02:34:48;29.75;22.00;15.25
75960;PMS7003;64644;48.914;2.254;2023-04-03T02:37:13;21.25;20.25;15.00
75960;PMS7003;64644;48.914;2.254;2023-04-03T02:39:38;30.75;25.25;15.75
75960;PMS7003;64644;48.914;2.254;2023-04-03T02:42:04;24.50;23.00;16.75
75960;PMS7003;64644;48.914;2.254;2023-04-03T02:44:29;22.00;19.25;12.50
75960;PMS7003;64644;48.914;2.254;2023-04-03T02:46:54;21.25;19.25;12.75
75960;PMS7003;64644;48.914;2.254;2023-04-03T02:49:20;18.25;15.25;12.00
75960;PMS7003;64644;48.914;2.254;2023-04-03T02:51:45;23.75;21.75;14.25
75960;PMS7003;64644;48.914;2.254;2023-04-03T02:54:11;22.75;18.00;11.25
75960;PMS7003;64644;48.914;2.254;2023-04-03T02:56:36;22.25;19.00;12.00
75960;PMS7003;64644;48.914;2.254;2023-04-03T02:59:01;26.75;24.75;13.00
75960;PMS7003;64644;48.914;2.254;2023-04-03T03:01:27;15.50;15.25;12.00
75960;PMS7003;64644;48.914;2.254;2023-04-03T03:03:56;18.50;17.75;12.75
75960;PMS7003;64644;48.914;2.254;2023-04-03T03:06:22;17.50;16.00;11.75
75960;PMS7003;64644;48.914;2.254;2023-04-03T03:08:47;22.25;19.75;12.75
75960;PMS7003;64644;48.914;2.254;2023-04-03T03:11:12;15.00;15.00;10.50
75960;PMS7003;64644;48.914;2.254;2023-04-03T03:13:38;18.75;16.50;10.25
75960;PMS7003;64644;48.914;2.254;2023-04-03T03:16:04;22.50;19.75;12.00
75960;PMS7003;64644;48.914;2.254;2023-04-03T03:18:30;20.50;16.00;9.75
75960;PMS7003;64644;48.914;2.254;2023-04-03T03:20:56;15.75;13.50;9.00
75960;PMS7003;64644;48.914;2.254;2023-04-03T03:23:23;16.25;15.25;8.75
75960;PMS7003;64644;48.914;2.254;2023-04-03T03:28:45;18.25;11.75;8.75
75960;PMS7003;64644;48.914;2.254;2023-04-03T03:31:11;13.50;12.75;7.00
75960;PMS7003;64644;48.914;2.254;2023-04-03T03:33:37;16.50;15.00;10.75
75960;PMS7003;64644;48.914;2.254;2023-04-03T03:36:02;16.25;13.25;10.00
75960;PMS7003;64644;48.914;2.254;2023-04-03T03:38:28;12.25;10.75;8.00
75960;PMS7003;64644;48.914;2.254;2023-04-03T03:40:53;16.75;15.25;9.25
75960;PMS7003;64644;48.914;2.254;2023-04-03T03:43:19;21.25;18.75;10.75
75960;PMS7003;64644;48.914;2.254;2023-04-03T03:45:45;16.75;15.00;10.75
75960;PMS7003;64644;48.914;2.254;2023-04-03T03:48:15;14.00;12.75;8.50
75960;PMS7003;64644;48.914;2.254;2023-04-03T03:50:40;16.50;14.25;9.00
75960;PMS7003;64644;48.914;2.254;2023-04-03T03:53:06;12.75;11.25;8.00
75960;PMS7003;64644;48.914;2.254;2023-04-03T03:55:31;18.50;15.25;10.25
75960;PMS7003;64644;48.914;2.254;2023-04-03T03:57:56;11.00;10.25;7.00
75960;PMS7003;64644;48.914;2.254;2023-04-03T04:00:22;16.75;15.75;10.25
75960;PMS7003;64644;48.914;2.254;2023-04-03T04:02:47;16.00;13.75;9.00
75960;PMS7003;64644;48.914;2.254;2023-04-03T04:05:13;17.00;14.50;8.75
75960;PMS7003;64644;48.914;2.254;2023-04-03T04:07:38;16.25;14.00;9.00
75960;PMS7003;64644;48.914;2.254;2023-04-03T04:10:03;16.00;14.25;9.50
75960;PMS7003;64644;48.914;2.254;2023-04-03T04:12:29;15.00;13.25;9.75
75960;PMS7003;64644;48.914;2.254;2023-04-03T04:14:55;20.00;12.50;11.50
75960;PMS7003;64644;48.914;2.254;2023-04-03T04:17:20;14.25;11.50;8.50
75960;PMS7003;64644;48.914;2.254;2023-04-03T04:19:46;12.75;12.75;8.75
75960;PMS7003;64644;48.914;2.254;2023-04-03T04:22:11;16.00;13.00;8.00
75960;PMS7003;64644;48.914;2.254;2023-04-03T04:24:37;13.75;13.75;10.75
75960;PMS7003;64644;48.914;2.254;2023-04-03T04:27:02;17.50;13.50;9.50
75960;PMS7003;64644;48.914;2.254;2023-04-03T04:29:27;13.00;9.50;6.00
75960;PMS7003;64644;48.914;2.254;2023-04-03T04:31:53;16.00;16.00;9.50
75960;PMS7003;64644;48.914;2.254;2023-04-03T04:34:18;14.75;13.00;10.25
75960;PMS7003;64644;48.914;2.254;2023-04-03T04:36:43;18.50;14.50;9.00
75960;PMS7003;64644;48.914;2.254;2023-04-03T04:39:09;15.00;13.00;9.25
75960;PMS7003;64644;48.914;2.254;2023-04-03T04:41:34;16.75;16.75;11.25
75960;PMS7003;64644;48.914;2.254;2023-04-03T04:43:59;15.25;15.25;9.00
75960;PMS7003;64644;48.914;2.254;2023-04-03T04:46:25;16.25;15.25;10.75
75960;PMS7003;64644;48.914;2.254;2023-04-03T04:48:51;20.25;16.25;10.75
75960;PMS7003;64644;48.914;2.254;2023-04-03T04:51:16;18.00;18.00;9.00
75960;PMS7003;64644;48.914;2.254;2023-04-03T04:53:42;17.50;15.00;9.50
75960;PMS7003;64644;48.914;2.254;2023-04-03T04:56:08;14.75;13.00;9.25
75960;PMS7003;64644;48.914;2.254;2023-04-03T04:58:34;14.25;14.25;8.50
75960;PMS7003;64644;48.914;2.254;2023-04-03T05:01:00;14.25;14.25;10.75
75960;PMS7003;64644;48.914;2.254;2023-04-03T05:03:33;11.00;9.00;8.00
75960;PMS7003;64644;48.914;2.254;2023-04-03T05:05:59;17.00;15.50;11.75
75960;PMS7003;64644;48.914;2.254;2023-04-03T05:08:25;15.00;12.50;9.50
75960;PMS7003;64644;48.914;2.254;2023-04-03T05:10:50;14.75;14.25;11.00
75960;PMS7003;64644;48.914;2.254;2023-04-03T05:13:16;16.25;11.75;9.25
75960;PMS7003;64644;48.914;2.254;2023-04-03T05:15:41;17.00;17.00;12.00
75960;PMS7003;64644;48.914;2.254;2023-04-03T05:18:07;22.25;17.00;11.50
75960;PMS7003;64644;48.914;2.254;2023-04-03T05:20:32;17.00;15.25;10.25
75960;PMS7003;64644;48.914;2.254;2023-04-03T05:22:58;18.00;15.50;11.75
75960;PMS7003;64644;48.914;2.254;2023-04-03T05:25:24;13.75;12.50;10.75
75960;PMS7003;64644;48.914;2.254;2023-04-03T05:27:50;15.75;15.75;9.00
75960;PMS7003;64644;48.914;2.254;2023-04-03T05:30:15;13.50;12.50;9.00
75960;PMS7003;64644;48.914;2.254;2023-04-03T05:32:41;17.25;14.75;9.75
75960;PMS7003;64644;48.914;2.254;2023-04-03T05:35:08;22.25;17.50;12.25
75960;PMS7003;64644;48.914;2.254;2023-04-03T05:37:33;16.25;15.25;10.50
75960;PMS7003;64644;48.914;2.254;2023-04-03T05:39:59;5.50;5.50;5.50
75960;PMS7003;64644;48.914;2.254;2023-04-03T05:42:24;24.50;19.50;12.25
75960;PMS7003;64644;48.914;2.254;2023-04-03T05:44:50;8.00;8.00;8.00
75960;PMS7003;64644;48.914;2.254;2023-04-03T05:47:16;19.50;15.00;9.25
75960;PMS7003;64644;48.914;2.254;2023-04-03T05:49:42;16.50;15.75;8.75
75960;PMS7003;64644;48.914;2.254;2023-04-03T05:52:23;18.75;17.75;10.75
75960;PMS7003;64644;48.914;2.254;2023-04-03T05:54:51;19.75;18.25;13.25
75960;PMS7003;64644;48.914;2.254;2023-04-03T05:57:17;19.50;18.75;11.00
75960;PMS7003;64644;48.914;2.254;2023-04-03T05:59:43;14.50;14.50;12.00
75960;PMS7003;64644;48.914;2.254;2023-04-03T06:02:11;20.00;20.00;12.00
75960;PMS7003;64644;48.914;2.254;2023-04-03T06:04:37;17.50;16.00;13.00
75960;PMS7003;64644;48.914;2.254;2023-04-03T06:07:03;24.00;18.00;12.00
75960;PMS7003;64644;48.914;2.254;2023-04-03T06:09:29;19.25;18.75;13.25
75960;PMS7003;64644;48.914;2.254;2023-04-03T06:11:55;25.00;20.00;13.00
75960;PMS7003;64644;48.914;2.254;2023-04-03T06:14:23;23.75;20.00;12.00
75960;PMS7003;64644;48.914;2.254;2023-04-03T06:16:49;21.50;19.50;13.00
75960;PMS7003;64644;48.914;2.254;2023-04-03T06:19:14;16.67;15.00;11.00
75960;PMS7003;64644;48.914;2.254;2023-04-03T06:21:40;22.50;18.00;11.50
75960;PMS7003;64644;48.914;2.254;2023-04-03T06:24:06;21.50;17.25;12.75
75960;PMS7003;64644;48.914;2.254;2023-04-03T06:26:32;20.00;19.25;11.75
75960;PMS7003;64644;48.914;2.254;2023-04-03T06:28:58;18.00;16.00;10.50
75960;PMS7003;64644;48.914;2.254;2023-04-03T06:31:24;20.00;19.25;13.00
75960;PMS7003;64644;48.914;2.254;2023-04-03T06:33:50;18.75;18.75;14.75
75960;PMS7003;64644;48.914;2.254;2023-04-03T06:36:15;20.00;20.00;10.75
75960;PMS7003;64644;48.914;2.254;2023-04-03T06:38:45;16.00;15.75;11.75
75960;PMS7003;64644;48.914;2.254;2023-04-03T06:41:10;23.75;21.50;14.75
75960;PMS7003;64644;48.914;2.254;2023-04-03T06:43:36;25.75;19.25;10.75
75960;PMS7003;64644;48.914;2.254;2023-04-03T06:46:01;19.75;18.50;12.50
75960;PMS7003;64644;48.914;2.254;2023-04-03T06:48:27;19.00;19.00;12.00
75960;PMS7003;64644;48.914;2.254;2023-04-03T06:50:52;24.00;22.25;15.00
75960;PMS7003;64644;48.914;2.254;2023-04-03T06:53:18;21.75;20.00;12.00
75960;PMS7003;64644;48.914;2.254;2023-04-03T06:55:43;17.25;15.75;9.00
75960;PMS7003;64644;48.914;2.254;2023-04-03T06:58:09;19.00;17.00;11.00
75960;PMS7003;64644;48.914;2.254;2023-04-03T07:00:34;21.00;17.25;12.25
75960;PMS7003;64644;48.914;2.254;2023-04-03T07:02:59;21.25;19.00;12.00
75960;PMS7003;64644;48.914;2.254;2023-04-03T07:05:25;18.75;16.00;11.00
75960;PMS7003;64644;48.914;2.254;2023-04-03T07:07:51;19.75;19.75;12.50
75960;PMS7003;64644;48.914;2.254;2023-04-03T07:10:17;21.00;18.75;14.00
75960;PMS7003;64644;48.914;2.254;2023-04-03T07:12:43;19.25;16.50;11.50
75960;PMS7003;64644;48.914;2.254;2023-04-03T07:15:09;21.25;19.50;14.00
75960;PMS7003;64644;48.914;2.254;2023-04-03T07:17:35;20.50;16.50;12.00
75960;PMS7003;64644;48.914;2.254;2023-04-03T07:20:02;23.50;17.50;13.00
75960;PMS7003;64644;48.914;2.254;2023-04-03T07:22:28;24.00;22.50;13.00
75960;PMS7003;64644;48.914;2.254;2023-04-03T07:24:54;19.75;19.50;10.25
75960;PMS7003;64644;48.914;2.254;2023-04-03T07:27:20;23.25;19.00;12.50
75960;PMS7003;64644;48.914;2.254;2023-04-03T07:29:45;21.75;20.00;13.75
75960;PMS7003;64644;48.914;2.254;2023-04-03T07:32:13;21.25;19.00;13.00
75960;PMS7003;64644;48.914;2.254;2023-04-03T07:34:38;20.50;18.75;12.50
75960;PMS7003;64644;48.914;2.254;2023-04-03T07:37:03;19.00;17.00;12.75
75960;PMS7003;64644;48.914;2.254;2023-04-03T07:39:29;18.75;16.00;9.00
75960;PMS7003;64644;48.914;2.254;2023-04-03T07:41:55;26.00;21.50;13.50
75960;PMS7003;64644;48.914;2.254;2023-04-03T07:44:21;18.00;13.00;9.50
75960;PMS7003;64644;48.914;2.254;2023-04-03T07:46:47;19.50;17.50;10.75
75960;PMS7003;64644;48.914;2.254;2023-04-03T07:49:13;20.00;20.00;13.00
75960;PMS7003;64644;48.914;2.254;2023-04-03T07:51:39;22.25;22.25;12.75
75960;PMS7003;64644;48.914;2.254;2023-04-03T07:54:04;24.75;20.00;12.00
75960;PMS7003;64644;48.914;2.254;2023-04-03T07:56:30;10.00;8.75;7.50
75960;PMS7003;64644;48.914;2.254;2023-04-03T07:58:55;21.50;19.50;13.50
75960;PMS7003;64644;48.914;2.254;2023-04-03T08:01:20;18.50;16.75;9.25
75960;PMS7003;64644;48.914;2.254;2023-04-03T08:03:46;15.50;15.50;9.50
75960;PMS7003;64644;48.914;2.254;2023-04-03T08:06:12;15.00;13.75;9.50
75960;PMS7003;64644;48.914;2.254;2023-04-03T08:08:40;19.75;19.50;13.00
75960;PMS7003;64644;48.914;2.254;2023-04-03T08:11:05;20.00;14.00;10.00
75960;PMS7003;64644;48.914;2.254;2023-04-03T08:13:32;14.50;13.25;9.75
75960;PMS7003;64644;48.914;2.254;2023-04-03T08:16:06;16.50;14.75;9.75
75960;PMS7003;64644;48.914;2.254;2023-04-03T08:18:37;16.50;14.50;9.75
75960;PMS7003;64644;48.914;2.254;2023-04-03T08:21:07;18.50;16.00;13.00
75960;PMS7003;64644;48.914;2.254;2023-04-03T08:23:34;20.00;15.00;12.50
75960;PMS7003;64644;48.914;2.254;2023-04-03T08:26:05;16.00;13.50;9.25
75960;PMS7003;64644;48.914;2.254;2023-04-03T08:28:34;18.25;16.50;12.25
75960;PMS7003;64644;48.914;2.254;2023-04-03T08:31:04;13.00;12.75;8.75
75960;PMS7003;64644;48.914;2.254;2023-04-03T08:33:31;16.50;14.25;9.25
75960;PMS7003;64644;48.914;2.254;2023-04-03T08:35:56;20.00;14.50;9.00
75960;PMS7003;64644;48.914;2.254;2023-04-03T08:38:22;13.00;11.00;8.75
75960;PMS7003;64644;48.914;2.254;2023-04-03T08:40:47;9.25;9.25;8.25
75960;PMS7003;64644;48.914;2.254;2023-04-03T08:45:58;10.25;8.50;5.75
75960;PMS7003;64644;48.914;2.254;2023-04-03T08:48:33;9.75;8.75;7.25
75960;PMS7003;64644;48.914;2.254;2023-04-03T08:51:03;10.00;8.75;8.00
75960;PMS7003;64644;48.914;2.254;2023-04-03T08:53:39;8.75;8.75;6.25
75960;PMS7003;64644;48.914;2.254;2023-04-03T08:56:09;8.75;8.75;5.00
75960;PMS7003;64644;48.914;2.254;2023-04-03T08:58:57;9.50;9.50;6.00
75960;PMS7003;64644;48.914;2.254;2023-04-03T09:01:24;8.00;8.00;4.50
75960;PMS7003;64644;48.914;2.254;2023-04-03T09:03:54;11.00;7.50;6.25
75960;PMS7003;64644;48.914;2.254;2023-04-03T09:06:23;9.25;9.25;6.50
75960;PMS7003;64644;48.914;2.254;2023-04-03T09:19:22;8.00;8.00;6.00
75960;PMS7003;64644;48.914;2.254;2023-04-03T09:22:19;8.50;8.00;6.00
75960;PMS7003;64644;48.914;2.254;2023-04-03T09:24:58;11.25;9.00;7.25
75960;PMS7003;64644;48.914;2.254;2023-04-03T09:27:30;8.00;5.50;4.25
75960;PMS7003;64644;48.914;2.254;2023-04-03T09:29:56;8.75;8.25;5.75
75960;PMS7003;64644;48.914;2.254;2023-04-03T09:32:29;7.25;5.75;5.25
75960;PMS7003;64644;48.914;2.254;2023-04-03T09:35:01;8.00;8.00;4.00
75960;PMS7003;64644;48.914;2.254;2023-04-03T09:37:36;8.00;7.50;5.00
75960;PMS7003;64644;48.914;2.254;2023-04-03T09:40:05;8.50;6.50;5.50
75960;PMS7003;64644;48.914;2.254;2023-04-03T09:42:52;10.00;6.00;3.50
75960;PMS7003;64644;48.914;2.254;2023-04-03T09:45:23;5.00;5.00;3.50
75960;PMS7003;64644;48.914;2.254;2023-04-03T09:48:35;3.75;3.75;2.50
75960;PMS7003;64644;48.914;2.254;2023-04-03T09:50:59;7.00;7.00;5.00
75960;PMS7003;64644;48.914;2.254;2023-04-03T09:56:00;5.00;5.00;5.00
75960;PMS7003;64644;48.914;2.254;2023-04-03T09:58:29;6.50;6.50;5.00
75960;PMS7003;64644;48.914;2.254;2023-04-03T10:00:58;5.25;4.00;2.00
75960;PMS7003;64644;48.914;2.254;2023-04-03T10:03:36;7.00;7.00;6.00
75960;PMS7003;64644;48.914;2.254;2023-04-03T10:06:02;6.25;6.25;5.75
75960;PMS7003;64644;48.914;2.254;2023-04-03T10:08:33;5.50;5.00;3.50
75960;PMS7003;64644;48.914;2.254;2023-04-03T10:13:58;5.25;5.25;5.00
75960;PMS7003;64644;48.914;2.254;2023-04-03T10:16:27;6.50;6.50;5.00
75960;PMS7003;64644;48.914;2.254;2023-04-03T10:21:50;6.00;5.00;3.00
75960;PMS7003;64644;48.914;2.254;2023-04-03T10:24:39;7.75;4.00;2.00
75960;PMS7003;64644;48.914;2.254;2023-04-03T10:27:15;7.50;7.25;5.00
75960;PMS7003;64644;48.914;2.254;2023-04-03T10:46:26;6.25;6.00;5.00
75960;PMS7003;64644;48.914;2.254;2023-04-03T10:51:48;6.00;6.00;5.50
75960;PMS7003;64644;48.914;2.254;2023-04-03T10:54:25;5.00;5.00;4.50
75960;PMS7003;64644;48.914;2.254;2023-04-03T11:02:07;6.00;4.25;3.00
75960;PMS7003;64644;48.914;2.254;2023-04-03T11:05:06;7.00;6.00;4.25
75960;PMS7003;64644;48.914;2.254;2023-04-03T11:07:42;6.00;4.50;4.00
75960;PMS7003;64644;48.914;2.254;2023-04-03T11:10:18;4.75;4.00;3.00
75960;PMS7003;64644;48.914;2.254;2023-04-03T11:12:46;7.00;5.00;3.50
75960;PMS7003;64644;48.914;2.254;2023-04-03T11:15:18;3.75;3.00;3.00
75960;PMS7003;64644;48.914;2.254;2023-04-03T11:18:06;4.00;4.00;3.75
75960;PMS7003;64644;48.914;2.254;2023-04-03T11:20:37;6.00;3.50;2.25
75960;PMS7003;64644;48.914;2.254;2023-04-03T11:23:13;3.25;3.00;2.25
75960;PMS7003;64644;48.914;2.254;2023-04-03T11:25:49;3.25;3.00;2.00
75960;PMS7003;64644;48.914;2.254;2023-04-03T11:28:17;7.00;6.00;3.50
75960;PMS7003;64644;48.914;2.254;2023-04-03T11:38:47;3.50;3.50;3.00
75960;PMS7003;64644;48.914;2.254;2023-04-03T11:41:17;3.75;3.75;3.00
75960;PMS7003;64644;48.914;2.254;2023-04-03T11:57:45;5.50;5.50;3.00
75960;PMS7003;64644;48.914;2.254;2023-04-03T12:05:50;3.75;3.00;2.75
75960;PMS7003;64644;48.914;2.254;2023-04-03T12:16:29;5.25;5.25;3.00
75960;PMS7003;64644;48.914;2.254;2023-04-03T12:18:58;4.25;4.25;3.00
75960;PMS7003;64644;48.914;2.254;2023-04-03T12:29:42;8.50;5.50;3.00
75960;PMS7003;64644;48.914;2.254;2023-04-03T12:45:50;7.50;5.25;4.00
75960;PMS7003;64644;48.914;2.254;2023-04-03T12:48:17;6.00;4.75;4.25
75960;PMS7003;64644;48.914;2.254;2023-04-03T12:50:49;5.00;4.00;3.00
75960;PMS7003;64644;48.914;2.254;2023-04-03T12:53:22;3.25;3.25;3.00
75960;PMS7003;64644;48.914;2.254;2023-04-03T12:55:57;6.75;5.50;4.25
75960;PMS7003;64644;48.914;2.254;2023-04-03T12:58:57;5.00;5.00;3.50
75960;PMS7003;64644;48.914;2.254;2023-04-03T13:01:42;3.00;3.00;3.00
75960;PMS7003;64644;48.914;2.254;2023-04-03T13:04:10;3.00;3.00;2.75
75960;PMS7003;64644;48.914;2.254;2023-04-03T13:06:41;3.25;2.00;2.00
75960;PMS7003;64644;48.914;2.254;2023-04-03T13:09:22;2.00;2.00;1.25
75960;PMS7003;64644;48.914;2.254;2023-04-03T13:11:48;2.00;2.00;1.25
75960;PMS7003;64644;48.914;2.254;2023-04-03T13:14:16;5.00;3.25;2.00
75960;PMS7003;64644;48.914;2.254;2023-04-03T13:16:53;3.75;2.75;2.50
75960;PMS7003;64644;48.914;2.254;2023-04-03T13:19:22;2.75;2.75;2.00
75960;PMS7003;64644;48.914;2.254;2023-04-03T13:21:49;3.00;3.00;2.50
75960;PMS7003;64644;48.914;2.254;2023-04-03T13:24:20;2.75;2.75;2.00
75960;PMS7003;64644;48.914;2.254;2023-04-03T13:26:45;4.00;3.75;2.25
75960;PMS7003;64644;48.914;2.254;2023-04-03T13:29:27;4.00;4.00;2.00
75960;PMS7003;64644;48.914;2.254;2023-04-03T13:31:55;3.50;3.50;3.00
75960;PMS7003;64644;48.914;2.254;2023-04-03T13:34:22;3.00;3.00;3.00
75960;PMS7003;64644;48.914;2.254;2023-04-03T13:41:45;1.00;1.00;1.00
75960;PMS7003;64644;48.914;2.254;2023-04-03T13:46:50;2.00;2.00;2.00
75960;PMS7003;64644;48.914;2.254;2023-04-03T13:49:19;3.00;3.00;2.50
75960;PMS7003;64644;48.914;2.254;2023-04-03T13:51:53;3.00;3.00;3.00
75960;PMS7003;64644;48.914;2.254;2023-04-03T13:54:20;3.25;3.25;3.00
75960;PMS7003;64644;48.914;2.254;2023-04-03T13:56:53;3.25;3.25;2.00
75960;PMS7003;64644;48.914;2.254;2023-04-03T13:59:23;4.00;4.00;3.00
75960;PMS7003;64644;48.914;2.254;2023-04-03T14:01:54;3.50;3.50;3.00
75960;PMS7003;64644;48.914;2.254;2023-04-03T14:04:24;5.75;5.75;3.25
75960;PMS7003;64644;48.914;2.254;2023-04-03T14:06:53;4.00;3.75;2.50
75960;PMS7003;64644;48.914;2.254;2023-04-03T14:09:19;4.00;4.00;3.00
75960;PMS7003;64644;48.914;2.254;2023-04-03T14:11:46;4.00;3.50;2.75
75960;PMS7003;64644;48.914;2.254;2023-04-03T14:14:22;4.00;4.00;3.25
75960;PMS7003;64644;48.914;2.254;2023-04-03T14:16:52;4.25;3.25;2.50
75960;PMS7003;64644;48.914;2.254;2023-04-03T14:19:21;3.00;3.00;3.00
75960;PMS7003;64644;48.914;2.254;2023-04-03T14:21:49;3.00;3.00;2.00
75960;PMS7003;64644;48.914;2.254;2023-04-03T14:24:16;3.00;3.00;3.00
75960;PMS7003;64644;48.914;2.254;2023-04-03T14:26:42;4.00;4.00;3.00
75960;PMS7003;64644;48.914;2.254;2023-04-03T14:29:09;4.25;4.25;3.00
75960;PMS7003;64644;48.914;2.254;2023-04-03T14:31:36;3.00;3.00;2.00
75960;PMS7003;64644;48.914;2.254;2023-04-03T14:34:01;3.00;3.00;2.75
75960;PMS7003;64644;48.914;2.254;2023-04-03T14:36:28;4.00;4.00;3.00
75960;PMS7003;64644;48.914;2.254;2023-04-03T14:38:54;4.00;4.00;3.00
75960;PMS7003;64644;48.914;2.254;2023-04-03T14:41:21;3.50;3.00;2.00
75960;PMS7003;64644;48.914;2.254;2023-04-03T14:43:48;2.00;2.00;2.00
75960;PMS7003;64644;48.914;2.254;2023-04-03T14:46:34;2.50;2.50;2.00
75960;PMS7003;64644;48.914;2.254;2023-04-03T14:49:02;4.50;4.50;3.50
75960;PMS7003;64644;48.914;2.254;2023-04-03T14:51:32;3.00;3.00;2.00
75960;PMS7003;64644;48.914;2.254;2023-04-03T14:53:58;5.25;4.00;2.00
75960;PMS7003;64644;48.914;2.254;2023-04-03T14:56:25;3.00;3.00;2.00
75960;PMS7003;64644;48.914;2.254;2023-04-03T14:58:57;3.00;3.00;2.25
75960;PMS7003;64644;48.914;2.254;2023-04-03T15:01:24;3.50;3.50;2.50
75960;PMS7003;64644;48.914;2.254;2023-04-03T15:03:50;4.00;4.00;3.75
75960;PMS7003;64644;48.914;2.254;2023-04-03T15:06:16;4.75;4.75;3.50
75960;PMS7003;64644;48.914;2.254;2023-04-03T15:08:42;3.00;3.00;2.75
75960;PMS7003;64644;48.914;2.254;2023-04-03T15:11:09;4.00;4.00;4.00
75960;PMS7003;64644;48.914;2.254;2023-04-03T15:13:35;4.75;4.75;3.50
75960;PMS7003;64644;48.914;2.254;2023-04-03T15:16:02;4.50;3.25;2.50
75960;PMS7003;64644;48.914;2.254;2023-04-03T15:18:29;4.00;4.00;2.25
75960;PMS7003;64644;48.914;2.254;2023-04-03T15:20:59;6.00;3.00;3.00
75960;PMS7003;64644;48.914;2.254;2023-04-03T15:23:25;4.75;4.75;3.00
75960;PMS7003;64644;48.914;2.254;2023-04-03T15:25:51;3.00;3.00;2.25
75960;PMS7003;64644;48.914;2.254;2023-04-03T15:28:31;3.25;3.25;3.00
75960;PMS7003;64644;48.914;2.254;2023-04-03T15:31:00;5.00;4.00;2.50
75960;PMS7003;64644;48.914;2.254;2023-04-03T15:33:25;6.25;3.25;3.00
75960;PMS7003;64644;48.914;2.254;2023-04-03T15:35:51;3.50;2.50;1.50
75960;PMS7003;64644;48.914;2.254;2023-04-03T15:38:16;3.00;3.00;2.00
75960;PMS7003;64644;48.914;2.254;2023-04-03T15:40:42;2.75;2.75;2.25
75960;PMS7003;64644;48.914;2.254;2023-04-03T15:43:08;4.25;4.25;3.50
75960;PMS7003;64644;48.914;2.254;2023-04-03T15:45:35;4.00;4.00;3.00
75960;PMS7003;64644;48.914;2.254;2023-04-03T15:48:02;3.00;3.00;2.00
75960;PMS7003;64644;48.914;2.254;2023-04-03T15:50:28;4.00;4.00;3.00
75960;PMS7003;64644;48.914;2.254;2023-04-03T15:52:54;7.00;3.75;2.75
75960;PMS7003;64644;48.914;2.254;2023-04-03T15:55:26;4.50;2.75;2.00
75960;PMS7003;64644;48.914;2.254;2023-04-03T15:57:56;5.75;3.50;2.50
75960;PMS7003;64644;48.914;2.254;2023-04-03T16:00:22;4.00;4.00;3.75
75960;PMS7003;64644;48.914;2.254;2023-04-03T16:02:48;3.50;3.00;2.00
75960;PMS7003;64644;48.914;2.254;2023-04-03T16:05:17;2.75;2.75;2.25
75960;PMS7003;64644;48.914;2.254;2023-04-03T16:07:44;0.00;0.00;0.00